Time;durP1;ratioP1;P1;durP2;ratioP2;P2;SDS_P1;SDS_P2;PMS_P1;PMS_P2;Temp;Humidity;BMP_temperature;BMP_pressure;BME280_temperature;BME280_humidity;BME280_pressure;Samples;Min_cycle;Max_cycle;Signal;HPM_P1;HPM_P2
2021/01/01 00:01:02;;;;;;;16.27;12.33;;;;;;;1.53;100.00;151760.03;4997059;28;20474;-89
2021/01/01 00:03:38;;;;;;;14.47;11.00;;;;;;;1.60;100.00;151778.00;5011919;28;20996;-90
2021/01/01 00:06:15;;;;;;;14.03;9.97;;;;;;;1.61;100.00;151780.59;4997404;28;20790;-90
2021/01/01 00:08:50;;;;;;;14.00;11.00;;;;;;;1.63;100.00;151785.72;4997056;28;20436;-91
2021/01/01 00:11:26;;;;;;;12.67;10.47;;;;;;;1.65;100.00;151790.84;5011513;28;20465;-90
2021/01/01 00:14:02;;;;;;;13.83;10.60;;;;;;;1.65;100.00;151790.84;5001116;28;20460;-91
2021/01/01 00:17:23;;;;;;;13.07;10.10;;;;;;;1.64;100.00;151789.56;5012126;28;20452;-91
2021/01/01 00:19:58;;;;;;;14.87;9.83;;;;;;;1.67;100.00;151795.97;4996761;28;20786;-91
2021/01/01 00:22:35;;;;;;;12.40;9.90;;;;;;;1.67;100.00;151797.28;4996504;28;20476;-90
2021/01/01 00:25:12;;;;;;;13.43;9.90;;;;;;;1.70;100.00;151805.00;4997136;28;20469;-90
2021/01/01 00:27:48;;;;;;;11.13;8.97;;;;;;;1.72;100.00;151808.88;4997104;28;20437;-90
2021/01/01 00:30:23;;;;;;;13.17;10.13;;;;;;;1.73;100.00;151811.41;4996517;28;20429;-90
2021/01/01 00:32:59;;;;;;;11.70;10.10;;;;;;;1.73;100.00;151811.41;4996895;28;20533;-90
2021/01/01 00:35:35;;;;;;;13.70;10.20;;;;;;;1.73;100.00;151811.41;4996739;28;20441;-90
2021/01/01 00:38:13;;;;;;;17.23;10.30;;;;;;;1.73;100.00;151811.41;4996625;28;20471;-90
2021/01/01 00:40:50;;;;;;;10.80;7.80;;;;;;;1.75;100.00;151816.56;4995994;28;20485;-90
2021/01/01 00:43:26;;;;;;;12.53;9.00;;;;;;;1.76;100.00;151819.13;4996611;28;20497;-90
2021/01/01 00:46:01;;;;;;;11.87;8.40;;;;;;;1.76;100.00;151819.13;4996535;28;20834;-90
2021/01/01 00:48:38;;;;;;;10.80;8.60;;;;;;;1.76;100.00;151819.13;4996253;28;20454;-89
2021/01/01 00:51:14;;;;;;;10.60;7.87;;;;;;;1.74;100.00;151815.31;4995873;28;20867;-90
2021/01/01 00:53:50;;;;;;;13.03;9.40;;;;;;;1.74;100.00;151815.31;4996201;28;20451;-90
2021/01/01 00:56:28;;;;;;;10.20;8.43;;;;;;;1.74;100.00;151815.31;4996321;28;20433;-89
2021/01/01 00:59:14;;;;;;;9.80;8.27;;;;;;;1.76;100.00;151819.13;5005767;28;20442;-90
2021/01/01 01:01:50;;;;;;;9.80;7.90;;;;;;;1.77;100.00;151821.72;4995813;28;20532;-90
2021/01/01 01:04:26;;;;;;;10.20;7.43;;;;;;;1.75;100.00;151816.56;4996138;28;20555;-90
2021/01/01 01:07:03;;;;;;;12.37;8.57;;;;;;;1.77;100.00;151821.72;4996120;28;20445;-89
2021/01/01 01:09:39;;;;;;;11.10;8.23;;;;;;;1.77;100.00;151821.72;4995804;28;20454;-90
2021/01/01 01:12:16;;;;;;;11.10;7.73;;;;;;;1.79;100.00;151828.16;4995554;28;20445;-90
2021/01/01 01:14:51;;;;;;;12.80;9.30;;;;;;;1.79;100.00;151826.84;4996338;28;20821;-90
2021/01/01 01:17:27;;;;;;;11.67;8.47;;;;;;;1.81;100.00;151833.28;4996188;28;20473;-90
2021/01/01 01:20:04;;;;;;;10.70;7.50;;;;;;;1.81;100.00;151833.28;4995728;28;20528;-90
2021/01/01 01:22:43;;;;;;;9.97;7.90;;;;;;;1.80;100.00;151829.44;4995939;28;20464;-90
2021/01/01 01:25:21;;;;;;;10.13;7.93;;;;;;;1.82;100.00;151834.56;4976603;28;20797;-90
2021/01/01 01:27:58;;;;;;;10.97;8.23;;;;;;;1.82;100.00;151834.56;4991675;28;20450;-90
2021/01/01 01:30:33;;;;;;;9.30;7.23;;;;;;;1.84;100.00;151839.72;5011347;28;20445;-90
2021/01/01 01:33:09;;;;;;;10.30;7.93;;;;;;;1.84;100.00;151839.72;4983985;28;20437;-90
2021/01/01 01:35:44;;;;;;;10.70;7.17;;;;;;;1.85;100.00;151842.28;5004629;28;20893;-90
2021/01/01 01:38:20;;;;;;;10.27;6.97;;;;;;;1.86;100.00;151844.84;5002659;28;20426;-90
2021/01/01 01:40:57;;;;;;;10.93;7.00;;;;;;;1.87;100.00;151847.41;4980274;28;20480;-90
2021/01/01 01:43:33;;;;;;;10.73;7.10;;;;;;;1.87;100.00;151847.41;4976171;28;20467;-90
2021/01/01 01:46:08;;;;;;;10.03;7.60;;;;;;;1.88;100.00;151848.72;4976642;28;20442;-91
2021/01/01 01:48:45;;;;;;;12.40;8.77;;;;;;;1.90;100.00;151853.84;4976599;28;20479;-90
2021/01/01 01:51:20;;;;;;;10.10;8.30;;;;;;;1.90;100.00;151853.84;4991489;28;20940;-90
2021/01/01 01:53:56;;;;;;;11.87;8.10;;;;;;;1.89;100.00;151852.56;4994479;28;20450;-90
2021/01/01 01:56:32;;;;;;;10.83;7.90;;;;;;;1.88;100.00;151849.97;4995466;28;20468;-91
2021/01/01 01:59:08;;;;;;;11.50;8.50;;;;;;;1.90;100.00;151855.16;4995505;28;20426;-91
2021/01/01 02:01:43;;;;;;;10.00;7.50;;;;;;;1.90;100.00;151855.16;5012056;28;20442;-91
2021/01/01 02:04:19;;;;;;;9.40;6.83;;;;;;;1.92;100.00;151860.28;4995315;28;20561;-91
2021/01/01 02:06:54;;;;;;;10.57;7.30;;;;;;;1.91;100.00;151856.44;4995836;28;20443;-90
2021/01/01 02:09:30;;;;;;;10.20;7.80;;;;;;;1.91;100.00;151857.69;4995791;28;20464;-91
2021/01/01 02:12:07;;;;;;;10.37;8.00;;;;;;;1.93;100.00;151861.56;4994313;28;20449;-90
2021/01/01 02:14:43;;;;;;;9.20;7.33;;;;;;;1.94;100.00;151865.41;4995247;28;20766;-91
2021/01/01 02:17:18;;;;;;;9.10;7.60;;;;;;;1.93;100.00;151861.56;4995392;28;20548;-91
2021/01/01 02:20:03;;;;;;;10.40;7.80;;;;;;;1.95;100.00;151868.00;5010556;28;20859;-91
2021/01/01 02:22:40;;;;;;;11.33;8.07;;;;;;;1.97;100.00;151873.13;5010176;28;20477;-91
2021/01/01 02:25:15;;;;;;;12.83;8.27;;;;;;;1.97;100.00;151873.13;5010122;28;20437;-91
2021/01/01 02:27:51;;;;;;;12.20;8.37;;;;;;;1.97;100.00;151873.13;5011426;28;20419;-91
2021/01/01 02:30:26;;;;;;;13.17;9.40;;;;;;;1.98;100.00;151875.72;5009823;28;20447;-90
2021/01/01 02:33:01;;;;;;;12.33;8.67;;;;;;;1.98;100.00;151875.72;5010145;28;20433;-90
2021/01/01 02:35:36;;;;;;;11.87;9.23;;;;;;;1.99;100.00;151878.25;4995001;28;20460;-91
2021/01/01 02:38:13;;;;;;;10.63;8.67;;;;;;;1.98;100.00;151875.72;4994944;28;20443;-91
2021/01/01 02:40:48;;;;;;;10.57;8.47;;;;;;;1.98;100.00;151875.72;5009559;28;20831;-91
2021/01/01 02:43:24;;;;;;;13.67;9.20;;;;;;;1.99;100.00;151876.97;5010585;28;20552;-91
2021/01/01 02:45:59;;;;;;;11.30;8.80;;;;;;;1.98;100.00;151875.72;5010143;28;20443;-91
2021/01/01 02:48:34;;;;;;;14.50;9.47;;;;;;;1.98;100.00;151875.72;5010148;28;20796;-91
2021/01/01 02:51:09;;;;;;;10.77;7.90;;;;;;;2.00;100.00;151880.84;5009859;28;20450;-90
2021/01/01 02:53:45;;;;;;;11.50;8.33;;;;;;;1.99;100.00;151878.25;5010008;28;20931;-91
2021/01/01 02:56:20;;;;;;;12.40;9.70;;;;;;;1.99;100.00;151878.25;5010320;28;20426;-91
2021/01/01 02:58:55;;;;;;;11.67;8.97;;;;;;;1.99;100.00;151878.25;5010131;28;20542;-91
2021/01/01 03:01:31;;;;;;;11.63;8.73;;;;;;;2.01;100.00;151883.44;4994747;28;20453;-91
2021/01/01 03:04:06;;;;;;;11.73;8.17;;;;;;;2.00;100.00;151880.84;5009700;28;20815;-91
2021/01/01 03:06:41;;;;;;;13.53;9.00;;;;;;;2.02;100.00;151885.97;5010039;28;20544;-91
2021/01/01 03:09:18;;;;;;;11.23;8.80;;;;;;;2.02;100.00;151885.97;5010880;28;20418;-91
2021/01/01 03:11:53;;;;;;;10.97;8.60;;;;;;;2.05;100.00;151892.41;5009769;28;20445;-91
2021/01/01 03:14:28;;;;;;;11.10;8.77;;;;;;;2.05;100.00;151893.69;4994905;28;20449;-91
2021/01/01 03:17:04;;;;;;;12.30;9.57;;;;;;;2.06;100.00;151896.28;5009544;28;20445;-91
2021/01/01 03:19:39;;;;;;;12.53;9.97;;;;;;;2.06;100.00;151896.28;5009550;28;20442;-91
2021/01/01 03:22:14;;;;;;;11.23;8.87;;;;;;;2.06;100.00;151896.28;4994817;28;20457;-91
2021/01/01 03:24:51;;;;;;;11.87;9.03;;;;;;;2.08;100.00;151901.41;5012711;28;20443;-91
2021/01/01 03:27:26;;;;;;;12.40;8.90;;;;;;;2.07;100.00;151898.81;5013278;28;20449;-90
2021/01/01 03:30:01;;;;;;;13.37;10.43;;;;;;;2.06;100.00;151896.28;5013207;28;20425;-91
2021/01/01 03:32:36;;;;;;;12.80;8.90;;;;;;;2.03;100.00;151888.56;5014291;28;20418;-91
2021/01/01 03:35:12;;;;;;;12.33;9.13;;;;;;;2.03;100.00;151887.25;4992974;28;20465;-91
2021/01/01 03:37:47;;;;;;;12.77;8.77;;;;;;;2.04;100.00;151891.09;5003430;28;20434;-91
2021/01/01 03:40:24;;;;;;;11.43;8.97;;;;;;;2.00;100.00;151880.84;5012361;28;20472;-91
2021/01/01 03:42:59;;;;;;;13.50;8.97;;;;;;;1.94;100.00;151865.41;5012792;28;20462;-91
2021/01/01 03:45:34;;;;;;;16.20;10.10;;;;;;;1.93;100.00;151862.88;5009504;28;20901;-91
2021/01/01 03:48:10;;;;;;;16.20;9.70;;;;;;;1.91;100.00;151857.69;5012830;28;20516;-91
2021/01/01 03:50:45;;;;;;;13.10;9.87;;;;;;;1.91;100.00;151856.44;5012511;28;20474;-91
2021/01/01 03:53:21;;;;;;;12.97;9.37;;;;;;;1.89;100.00;151852.56;5012622;28;20728;-91
2021/01/01 03:55:57;;;;;;;14.70;10.20;;;;;;;1.90;100.00;151853.84;5012785;28;20458;-91
2021/01/01 03:58:33;;;;;;;12.17;9.60;;;;;;;1.89;100.00;151851.25;5012843;28;20471;-91
2021/01/01 04:01:08;;;;;;;14.10;10.37;;;;;;;1.90;100.00;151853.84;4997718;28;20937;-91
2021/01/01 04:03:44;;;;;;;12.80;9.80;;;;;;;1.90;100.00;151853.84;4997429;28;20474;-91
2021/01/01 04:06:20;;;;;;;13.57;9.73;;;;;;;1.90;100.00;151855.16;4997582;28;21108;-91
2021/01/01 04:08:55;;;;;;;13.33;10.70;;;;;;;1.91;100.00;151857.69;4997202;28;20438;-91
2021/01/01 04:11:36;;;;;;;12.50;9.83;;;;;;;1.92;100.00;151860.28;4997476;28;20441;-91
2021/01/01 04:14:13;;;;;;;12.90;10.00;;;;;;;1.91;100.00;151857.69;4997510;28;20800;-91
2021/01/01 04:16:48;;;;;;;14.80;10.70;;;;;;;1.90;100.00;151855.16;4997604;28;20450;-91
2021/01/01 04:19:24;;;;;;;14.43;10.43;;;;;;;1.90;100.00;151855.16;4997785;28;20469;-91
2021/01/01 04:21:59;;;;;;;15.77;10.67;;;;;;;1.91;100.00;151857.69;5007140;28;20447;-91
2021/01/01 04:24:34;;;;;;;14.37;10.70;;;;;;;1.91;100.00;151857.69;5007673;28;20815;-89
2021/01/01 04:27:10;;;;;;;15.90;10.87;;;;;;;1.92;100.00;151858.97;5005930;28;20438;-91
2021/01/01 04:29:46;;;;;;;15.67;11.00;;;;;;;1.93;100.00;151861.56;4997313;28;20436;-91
2021/01/01 04:32:21;;;;;;;12.37;9.93;;;;;;;1.92;100.00;151860.28;4997876;28;20437;-91
2021/01/01 04:34:56;;;;;;;14.63;11.13;;;;;;;1.94;100.00;151865.41;5011147;28;20450;-91
2021/01/01 04:37:31;;;;;;;16.20;11.30;;;;;;;1.94;100.00;151865.41;5028671;28;20452;-91
2021/01/01 04:40:07;;;;;;;15.10;11.13;;;;;;;1.96;100.00;151870.53;5011787;28;20785;-91
2021/01/01 04:42:44;;;;;;;14.40;11.80;;;;;;;1.97;100.00;151873.13;5011437;28;20481;-91
2021/01/01 04:45:19;;;;;;;16.67;12.07;;;;;;;1.98;100.00;151874.41;5011847;28;20449;-91
2021/01/01 04:47:55;;;;;;;12.40;10.03;;;;;;;1.95;100.00;151866.69;5011790;28;20916;-91
2021/01/01 04:50:30;;;;;;;12.70;9.70;;;;;;;1.90;100.00;151855.16;5011512;28;20445;-91
2021/01/01 04:53:09;;;;;;;15.13;9.57;;;;;;;1.88;100.00;151849.97;5012099;28;20445;-91
2021/01/01 04:55:45;;;;;;;13.03;10.67;;;;;;;1.85;100.00;151843.53;5011548;28;20445;-91
2021/01/01 04:58:22;;;;;;;17.30;11.83;;;;;;;1.86;100.00;151844.84;5012114;28;20804;-91
2021/01/01 05:00:57;;;;;;;15.20;11.27;;;;;;;1.83;100.00;151838.41;4996718;28;20459;-91
2021/01/01 05:03:33;;;;;;;13.77;10.40;;;;;;;1.80;100.00;151830.69;5011567;28;20489;-91
2021/01/01 05:06:08;;;;;;;15.47;11.57;;;;;;;1.81;100.00;151832.00;4996665;28;20445;-91
2021/01/01 05:08:45;;;;;;;16.30;10.30;;;;;;;1.81;100.00;151832.00;4996593;28;20939;-91
2021/01/01 05:11:21;;;;;;;14.80;11.47;;;;;;;1.83;100.00;151838.41;4996151;28;20441;-91
2021/01/01 05:13:59;;;;;;;14.50;10.10;;;;;;;1.85;100.00;151842.28;4996428;28;20452;-91
2021/01/01 05:16:35;;;;;;;17.90;11.00;;;;;;;1.88;100.00;151849.97;4996444;28;20482;-91
2021/01/01 05:19:12;;;;;;;17.70;11.30;;;;;;;1.90;100.00;151855.16;4996259;28;20544;-91
2021/01/01 05:22:03;;;;;;;15.77;11.17;;;;;;;1.91;100.00;151857.69;4996480;28;20438;-91
2021/01/01 05:24:40;;;;;;;17.10;11.30;;;;;;;1.91;100.00;151856.44;4996027;28;20498;-91
2021/01/01 05:27:17;;;;;;;14.20;9.73;;;;;;;1.91;100.00;151857.69;4996146;28;20445;-91
2021/01/01 05:29:54;;;;;;;13.00;9.80;;;;;;;1.92;100.00;151860.28;5004860;28;20488;-91
2021/01/01 05:32:30;;;;;;;15.13;10.90;;;;;;;1.93;100.00;151862.88;5016121;28;20544;-91
2021/01/01 05:35:07;;;;;;;15.40;10.37;;;;;;;1.93;100.00;151861.56;4997079;28;20469;-92
2021/01/01 05:37:42;;;;;;;18.07;11.63;;;;;;;1.90;100.00;151855.16;4995635;28;20440;-91
2021/01/01 05:40:18;;;;;;;15.43;10.73;;;;;;;1.90;100.00;151853.84;4995999;28;20449;-91
2021/01/01 05:42:54;;;;;;;14.77;10.10;;;;;;;1.90;100.00;151853.84;5010938;28;21036;-91
2021/01/01 05:45:30;;;;;;;18.23;11.80;;;;;;;1.90;100.00;151853.84;5000587;28;20436;-91
2021/01/01 05:48:06;;;;;;;16.20;10.90;;;;;;;1.93;100.00;151862.88;5006785;28;20476;-91
2021/01/01 05:50:42;;;;;;;18.20;11.53;;;;;;;1.96;100.00;151869.28;4996778;28;20431;-91
2021/01/01 05:53:19;;;;;;;18.00;12.60;;;;;;;1.98;100.00;151875.72;5015861;28;20452;-92
2021/01/01 05:56:06;;;;;;;18.70;11.90;;;;;;;1.97;100.00;151871.81;5015595;28;20428;-92
2021/01/01 05:58:42;;;;;;;16.70;10.70;;;;;;;1.98;100.00;151874.41;5015419;28;20476;-91
2021/01/01 06:01:18;;;;;;;17.07;11.23;;;;;;;1.98;100.00;151874.41;5014877;28;20421;-91
2021/01/01 06:03:55;;;;;;;16.47;10.90;;;;;;;1.99;100.00;151878.25;4997818;28;20564;-91
2021/01/01 06:06:33;;;;;;;15.57;10.97;;;;;;;1.98;100.00;151875.72;4995716;28;20473;-91
2021/01/01 06:09:10;;;;;;;14.60;10.50;;;;;;;1.98;100.00;151874.41;4995955;28;20445;-91
2021/01/01 06:11:58;;;;;;;17.63;11.33;;;;;;;1.96;100.00;151870.53;4995574;28;20426;-91
2021/01/01 06:14:44;;;;;;;15.47;11.83;;;;;;;1.95;100.00;151868.00;5000710;28;20445;-91
2021/01/01 06:17:21;;;;;;;15.00;10.80;;;;;;;1.95;100.00;151868.00;4996067;28;20437;-91
2021/01/01 06:19:57;;;;;;;15.57;10.40;;;;;;;1.95;100.00;151868.00;4995356;28;20434;-92
2021/01/01 06:22:33;;;;;;;16.33;10.00;;;;;;;1.97;100.00;151873.13;4995374;28;20434;-91
2021/01/01 06:25:12;;;;;;;14.43;10.10;;;;;;;1.93;100.00;151862.88;4995407;28;20915;-91
2021/01/01 06:27:47;;;;;;;13.20;8.80;;;;;;;1.93;100.00;151861.56;4995259;28;21018;-91
2021/01/01 06:30:24;;;;;;;9.50;7.70;;;;;;;1.90;100.00;151855.16;4995212;28;20520;-91
2021/01/01 06:33:00;;;;;;;9.27;7.47;;;;;;;1.85;100.00;151842.28;4995092;28;20468;-91
2021/01/01 06:35:42;;;;;;;7.77;6.57;;;;;;;1.77;100.00;151822.97;4995592;28;20437;-91
2021/01/01 06:38:39;;;;;;;9.33;6.80;;;;;;;1.74;100.00;151815.31;4995417;28;20465;-91
2021/01/01 06:41:44;;;;;;;9.13;6.00;;;;;;;1.72;100.00;151808.88;4994629;28;20466;-91
2021/01/01 06:44:34;;;;;;;8.60;6.43;;;;;;;1.73;100.00;151812.72;4995242;28;20473;-91
2021/01/01 06:47:10;;;;;;;10.20;7.30;;;;;;;1.71;100.00;151807.59;5010218;28;20524;-91
2021/01/01 06:49:46;;;;;;;9.03;6.60;;;;;;;1.71;100.00;151806.28;4995202;28;20438;-91
2021/01/01 06:52:22;;;;;;;9.43;5.87;;;;;;;1.70;100.00;151803.69;4994931;28;20434;-91
2021/01/01 06:54:59;;;;;;;9.27;6.60;;;;;;;1.72;100.00;151808.88;4995407;28;20829;-91
2021/01/01 06:57:34;;;;;;;9.23;6.30;;;;;;;1.70;100.00;151803.69;4995954;28;20807;-91
2021/01/01 07:00:11;;;;;;;8.37;6.77;;;;;;;1.74;100.00;151814.00;4998262;28;20870;-91
2021/01/01 07:02:47;;;;;;;10.33;6.60;;;;;;;1.74;100.00;151814.00;4998924;28;20460;-91
2021/01/01 07:05:26;;;;;;;9.17;6.63;;;;;;;1.75;100.00;151817.84;5001667;28;20441;-91
2021/01/01 07:08:02;;;;;;;7.53;6.03;;;;;;;1.74;100.00;151814.00;5008654;28;20432;-91
2021/01/01 07:10:39;;;;;;;7.70;6.40;;;;;;;1.74;100.00;151814.00;5023297;28;20425;-91
2021/01/01 07:13:18;;;;;;;6.70;5.57;;;;;;;1.74;100.00;151814.00;5002745;28;20450;-91
2021/01/01 07:15:53;;;;;;;8.50;6.07;;;;;;;1.74;100.00;151814.00;4998901;28;20482;-91
2021/01/01 07:18:29;;;;;;;7.80;5.70;;;;;;;1.75;100.00;151816.56;4998102;28;20557;-91
2021/01/01 07:21:06;;;;;;;7.10;5.17;;;;;;;1.75;100.00;151816.56;4997729;28;20433;-91
2021/01/01 07:23:42;;;;;;;7.33;5.20;;;;;;;1.70;100.00;151803.69;5013069;28;20466;-91
2021/01/01 07:26:18;;;;;;;7.50;5.80;;;;;;;1.73;100.00;151811.41;5013710;28;20476;-91
2021/01/01 07:28:55;;;;;;;7.10;5.40;;;;;;;1.70;100.00;151805.00;4978337;28;20458;-91
2021/01/01 07:31:30;;;;;;;7.83;4.63;;;;;;;1.69;100.00;151801.16;4993360;28;20862;-91
2021/01/01 07:34:10;;;;;;;6.10;4.67;;;;;;;1.71;100.00;151807.59;4993937;28;20438;-91
2021/01/01 07:36:47;;;;;;;7.07;5.23;;;;;;;1.69;100.00;151801.16;4994303;28;20442;-91
2021/01/01 07:39:27;;;;;;;7.50;5.17;;;;;;;1.69;100.00;151801.16;5012469;28;20476;-91
2021/01/01 07:42:04;;;;;;;6.50;4.37;;;;;;;1.68;100.00;151798.56;5012790;28;20959;-91
2021/01/01 07:44:39;;;;;;;6.73;4.53;;;;;;;1.63;100.00;151785.72;5012588;28;20464;-91
2021/01/01 07:47:14;;;;;;;6.17;4.87;;;;;;;1.60;100.00;151779.31;4997990;28;20429;-91
2021/01/01 07:49:50;;;;;;;6.20;4.33;;;;;;;1.60;100.00;151778.00;5012406;28;20520;-91
2021/01/01 07:52:26;;;;;;;6.00;4.53;;;;;;;1.62;100.00;151784.44;5012588;28;20441;-91
2021/01/01 07:55:01;;;;;;;5.63;4.57;;;;;;;1.63;100.00;151787.03;5012832;28;20444;-91
2021/01/01 07:57:37;;;;;;;7.30;4.70;;;;;;;1.64;100.00;151788.31;5029240;28;20866;-91
2021/01/01 08:00:15;;;;;;;8.00;5.27;;;;;;;1.64;100.00;151789.56;5013307;28;20421;-91
2021/01/01 08:02:50;;;;;;;8.07;5.63;;;;;;;1.64;100.00;151788.31;5012302;28;20452;-91
2021/01/01 08:05:25;;;;;;;7.20;5.43;;;;;;;1.64;100.00;151789.56;5012826;28;20946;-91
2021/01/01 08:08:12;;;;;;;9.00;6.63;;;;;;;1.62;100.00;151783.13;5012567;28;20481;-91
2021/01/01 08:10:49;;;;;;;8.27;5.27;;;;;;;1.61;100.00;151781.91;5011208;28;20533;-91
2021/01/01 08:13:26;;;;;;;7.30;5.33;;;;;;;1.66;100.00;151793.44;4997217;28;20504;-91
2021/01/01 08:16:11;;;;;;;8.20;6.30;;;;;;;1.66;100.00;151793.44;5012366;28;20440;-91
2021/01/01 08:18:46;;;;;;;10.20;7.53;;;;;;;1.67;100.00;151795.97;4996790;28;20459;-91
2021/01/01 08:21:22;;;;;;;10.50;7.13;;;;;;;1.64;100.00;151789.56;4997449;28;20520;-91
2021/01/01 08:24:01;;;;;;;7.67;5.60;;;;;;;1.66;100.00;151793.44;5012228;28;20481;-91
2021/01/01 08:26:38;;;;;;;5.43;4.80;;;;;;;1.66;100.00;151794.75;5012091;28;20441;-91
2021/01/01 08:29:15;;;;;;;7.97;5.10;;;;;;;1.70;100.00;151805.00;5012446;28;20448;-91
2021/01/01 08:31:51;;;;;;;6.40;4.90;;;;;;;1.73;100.00;151811.41;5011673;28;20436;-91
2021/01/01 08:34:26;;;;;;;5.87;4.13;;;;;;;1.74;100.00;151814.00;5012701;28;20441;-91
2021/01/01 08:37:03;;;;;;;5.40;3.60;;;;;;;1.78;100.00;151824.25;5012161;28;20531;-91
2021/01/01 08:39:39;;;;;;;5.07;3.80;;;;;;;1.81;100.00;151832.00;5011703;28;20436;-91
2021/01/01 08:42:22;;;;;;;5.90;3.87;;;;;;;1.82;100.00;151834.56;5011831;28;20464;-91
2021/01/01 08:44:58;;;;;;;6.37;4.20;;;;;;;1.82;100.00;151835.88;4997078;28;20463;-91
2021/01/01 08:47:42;;;;;;;5.63;3.73;;;;;;;1.87;100.00;151847.41;5012016;28;20445;-91
2021/01/01 08:50:19;;;;;;;5.33;3.60;;;;;;;1.85;100.00;151843.53;4999882;28;20430;-91
2021/01/01 08:52:58;;;;;;;5.40;4.10;;;;;;;1.88;100.00;151849.97;4977462;28;20446;-90
2021/01/01 08:55:35;;;;;;;3.60;3.30;;;;;;;1.90;100.00;151855.16;5008485;28;20438;-91
2021/01/01 08:58:11;;;;;;;4.47;3.37;;;;;;;1.89;100.00;151852.56;5003914;28;20449;-91
2021/01/01 09:00:47;;;;;;;5.13;3.90;;;;;;;1.90;100.00;151855.16;5027991;28;20430;-91
2021/01/01 09:03:23;;;;;;;4.23;3.20;;;;;;;1.89;100.00;151852.56;4996533;28;20464;-91
2021/01/01 09:05:58;;;;;;;5.50;4.17;;;;;;;1.91;100.00;151857.69;5012889;28;20472;-91
2021/01/01 09:08:33;;;;;;;4.03;3.13;;;;;;;1.95;100.00;151868.00;5011540;28;20450;-91
2021/01/01 09:11:20;;;;;;;9.73;3.43;;;;;;;1.98;100.00;151875.72;5011100;28;20446;-91
2021/01/01 09:13:59;;;;;;;3.63;2.90;;;;;;;2.00;100.00;151880.84;5010160;28;20451;-91
2021/01/01 09:16:35;;;;;;;3.77;2.93;;;;;;;2.05;100.00;151892.41;5011507;28;20441;-91
2021/01/01 09:19:11;;;;;;;4.03;2.77;;;;;;;1.99;100.00;151876.97;5006300;28;20835;-91
2021/01/01 09:21:46;;;;;;;3.90;3.00;;;;;;;1.99;100.00;151878.25;4976929;28;20483;-91
2021/01/01 09:24:24;;;;;;;3.83;2.30;;;;;;;2.00;100.00;151880.84;4996391;28;20461;-91
2021/01/01 09:27:01;;;;;;;3.53;2.90;;;;;;;2.04;100.00;151891.09;4995804;28;20448;-90
2021/01/01 09:29:36;;;;;;;4.00;2.90;;;;;;;2.06;100.00;151895.00;4995652;28;20487;-91
2021/01/01 09:32:13;;;;;;;3.27;2.53;;;;;;;2.07;100.00;151898.81;4996166;28;20441;-90
2021/01/01 09:34:51;;;;;;;3.77;2.90;;;;;;;2.08;100.00;151901.41;4996276;28;20433;-91
2021/01/01 09:37:26;;;;;;;2.40;2.10;;;;;;;2.12;100.00;151910.44;4996079;28;20909;-91
2021/01/01 09:40:02;;;;;;;4.40;2.80;;;;;;;2.12;100.00;151911.69;4995952;28;20447;-90
2021/01/01 09:42:38;;;;;;;3.17;2.80;;;;;;;2.15;100.00;151918.09;5010812;28;20469;-91
2021/01/01 09:45:15;;;;;;;4.80;3.47;;;;;;;2.18;100.00;151927.13;4996259;28;20434;-91
2021/01/01 09:47:50;;;;;;;4.43;3.10;;;;;;;2.21;100.00;151934.84;4996368;28;20436;-91
2021/01/01 09:50:26;;;;;;;4.00;3.40;;;;;;;2.23;100.00;151938.66;4996420;28;20826;-91
2021/01/01 09:53:02;;;;;;;3.87;3.07;;;;;;;2.27;100.00;151950.28;5019666;28;20449;-90
2021/01/01 09:55:37;;;;;;;4.57;3.07;;;;;;;2.33;100.00;151964.44;5004307;28;20454;-91
2021/01/01 09:58:13;;;;;;;3.57;2.50;;;;;;;2.37;100.00;151976.00;5004053;28;20443;-91
2021/01/01 10:00:49;;;;;;;3.50;2.70;;;;;;;2.39;100.00;151981.13;5003305;28;20529;-91
2021/01/01 10:03:24;;;;;;;3.60;3.00;;;;;;;2.43;100.00;151990.13;5010172;28;21063;-90
2021/01/01 10:06:00;;;;;;;3.70;3.07;;;;;;;2.43;100.00;151991.44;4995183;28;20466;-91
2021/01/01 10:09:02;;;;;;;4.37;3.37;;;;;;;2.49;100.00;152004.28;4995444;28;20808;-91
2021/01/01 10:11:37;;;;;;;4.20;3.23;;;;;;;2.56;100.00;152023.56;4994901;28;20446;-92
2021/01/01 10:14:14;;;;;;;5.00;3.27;;;;;;;2.60;100.00;152033.84;4995831;28;20449;-91
2021/01/01 10:16:49;;;;;;;3.80;3.00;;;;;;;2.63;100.00;152040.25;4995039;28;20431;-91
2021/01/01 10:19:25;;;;;;;3.00;2.50;;;;;;;2.63;100.00;152040.25;4994522;28;20446;-91
2021/01/01 10:22:00;;;;;;;3.30;2.53;;;;;;;2.72;100.00;152064.75;4977985;28;20514;-91
2021/01/01 10:24:36;;;;;;;3.93;2.83;;;;;;;2.73;100.00;152065.97;4997071;28;20470;-91
2021/01/01 10:27:11;;;;;;;4.40;2.83;;;;;;;2.75;100.00;152071.16;4994947;28;20426;-92
2021/01/01 10:29:47;;;;;;;4.10;2.87;;;;;;;2.75;100.00;152071.16;5009323;28;20443;-91
2021/01/01 10:32:23;;;;;;;3.27;2.97;;;;;;;2.75;100.00;152072.47;4994847;28;20440;-91
2021/01/01 10:34:58;;;;;;;4.53;3.03;;;;;;;2.77;100.00;152076.28;4998401;28;20435;-91
2021/01/01 10:37:33;;;;;;;3.90;3.13;;;;;;;2.75;100.00;152071.16;4998126;28;20439;-91
2021/01/01 10:40:09;;;;;;;3.97;2.97;;;;;;;2.78;100.00;152078.88;5010926;28;20504;-91
2021/01/01 10:42:45;;;;;;;3.50;3.13;;;;;;;2.82;100.00;152090.44;4987380;28;20478;-91
2021/01/01 10:45:21;;;;;;;4.67;3.27;;;;;;;2.80;100.00;152084.03;4997974;28;20852;-92
2021/01/01 10:47:57;;;;;;;3.50;2.90;;;;;;;2.83;100.00;152091.75;5012969;28;20455;-91
2021/01/01 10:50:32;;;;;;;3.80;2.87;;;;;;;2.83;100.00;152091.75;5024400;28;20456;-91
2021/01/01 10:53:07;;;;;;;3.47;2.70;;;;;;;2.77;99.50;152076.28;4978610;28;20538;-91
2021/01/01 10:55:44;;;;;;;4.33;3.07;;;;;;;2.85;100.00;152096.88;4985104;28;20441;-91
2021/01/01 10:58:25;;;;;;;4.80;3.40;;;;;;;2.83;100.00;152091.75;5015954;28;20447;-91
2021/01/01 11:01:01;;;;;;;3.57;2.90;;;;;;;2.81;100.00;152086.56;5043709;28;20454;-91
2021/01/01 11:03:37;;;;;;;4.20;3.80;;;;;;;2.84;100.00;152095.59;4994419;28;20886;-91
2021/01/01 11:06:12;;;;;;;4.53;2.97;;;;;;;2.89;100.00;152107.16;5029701;28;20446;-91
2021/01/01 11:08:48;;;;;;;3.70;2.57;;;;;;;2.92;100.00;152114.88;5012317;28;20782;-91
2021/01/01 11:11:24;;;;;;;3.47;2.57;;;;;;;2.93;100.00;152118.75;5012787;28;20921;-91
2021/01/01 11:14:03;;;;;;;3.60;2.57;;;;;;;2.93;100.00;152118.75;5012988;28;20444;-91
2021/01/01 12:20:57;;;;;;;4.17;2.97;;;;;;;3.22;100.00;152190.81;5028146;28;20439;-91
2021/01/01 12:23:41;;;;;;;3.90;3.00;;;;;;;3.11;94.98;152163.78;5009954;28;20511;-90
2021/01/01 12:26:18;;;;;;;3.43;2.87;;;;;;;3.15;94.73;152174.03;4997028;28;20456;-90
2021/01/01 12:28:54;;;;;;;4.07;2.70;;;;;;;3.22;96.91;152192.09;5008229;28;20457;-91
2021/01/01 12:31:30;;;;;;;3.40;3.03;;;;;;;3.24;98.01;152197.22;5008494;28;21086;-90
2021/01/01 12:34:06;;;;;;;3.70;3.13;;;;;;;3.23;98.76;152194.63;5011769;28;20486;-90
2021/01/01 12:36:42;;;;;;;3.93;3.10;;;;;;;3.22;98.10;152190.81;5011565;28;20533;-90
2021/01/01 12:39:17;;;;;;;3.73;2.73;;;;;;;3.21;97.19;152188.22;5008931;28;20448;-90
2021/01/01 12:41:54;;;;;;;4.13;3.17;;;;;;;3.19;96.20;152184.38;5011814;28;20480;-89
2021/01/01 12:44:29;;;;;;;2.93;2.40;;;;;;;3.20;96.88;152186.97;5005321;28;20555;-90
2021/01/01 12:47:05;;;;;;;3.40;2.90;;;;;;;3.10;94.09;152161.19;5023279;28;20903;-90
2021/01/01 12:49:42;;;;;;;3.77;2.87;;;;;;;3.12;96.42;152166.38;5029815;28;20446;-91
2021/01/01 12:52:18;;;;;;;3.70;3.00;;;;;;;3.07;95.93;152154.75;5015537;28;20436;-89
2021/01/01 12:54:53;;;;;;;3.60;3.00;;;;;;;3.08;96.47;152157.34;5005336;28;20448;-90
2021/01/01 12:57:30;;;;;;;4.83;3.60;;;;;;;3.08;97.46;152157.34;5011193;28;20459;-90
2021/01/01 13:00:08;;;;;;;5.10;3.40;;;;;;;3.10;96.48;152159.94;5010205;28;20466;-89
2021/01/01 13:02:44;;;;;;;4.77;3.53;;;;;;;3.08;97.49;152156.06;5010998;28;20448;-90
2021/01/01 13:05:19;;;;;;;3.90;3.50;;;;;;;3.04;95.10;152145.78;4996224;28;20476;-90
2021/01/01 13:07:55;;;;;;;3.90;3.43;;;;;;;2.99;93.55;152132.91;5011367;28;20518;-90